Oak Harbor, WA (98278)

3:42 AM PDT on October 01, 2016 (GMT -0700)
Crosswoods | | Change Station

Elev 150 ft 48.29 °N, 122.68 °W | Updated 12 seconds ago

Mostly Cloudy
Mostly Cloudy
49.5 °F
Feels Like 50 °F
N
0.0
Wind Variable Wind from NNE
Gusts 0.0 mph

Today
High -- | Low -- °F
--% Chance of Precip.
Yesterday
High -- | Low -- °F
Precip. -- in
Pressure 29.98 in
Visibility 9.0 miles
Clouds Scattered Clouds 5000 ft
Mostly Cloudy 8000 ft
Mostly Cloudy 11000 ft
Windchill 50 °F
Dew Point 49 °F
Humidity 98%
Rainfall 0.02 in
Snow Depth Not available.
7:10 AM 6:48 PM
New Moon, 0% visible
METAR KNUW 010956Z 11006KT 9SM SCT050 BKN080 BKN110 10/08 A2998 RMK AO2 RAE49 SLP151 P0000 T01000078 $
Pressure 29.98 in
Visibility 9.0 miles
Clouds Scattered Clouds 5000 ft
Mostly Cloudy 8000 ft
Mostly Cloudy 11000 ft
Windchill 50 °F
Dew Point 49 °F
Humidity 98%
Rainfall 0.02 in
Snow Depth Not available.
7:10 AM 6:48 PM
New Moon, 0% visible
METAR KNUW 010956Z 11006KT 9SM SCT050 BKN080 BKN110 10/08 A2998 RMK AO2 RAE49 SLP151 P0000 T01000078 $

10-Day Weather Forecast

Almanac

Astronomy

Oct. 01, 2016 Rise Set
Actual Time
Civil Twilight
Nautical Twilight
Astronomical Twilight
Moon
Length of Visible Light
Length of Day
Tomorrow will be .
, % of the Moon is Illuminated

Today's Extremes

State Highs State Lows

Community

WunderPhotos

Upload Photos

1,942,908 photos uploaded!

WunderBlog® & News

Nearby

Air Quality

  Air Quality AQ Index Pollutant
Not available.

Snow Depth

Station Depth Elevation

Earthquake Activity

City Distance Mag. Time & Date
Minimum magnitude displayed is 2.5.

Coastal Water Temperatures

Place Temperature

Stations

Nearby Weather Stations

Station Location Temp. Windchill Dew Point Humidity Wind Precip. Elev Updated Type
                   

Watches & Warnings

There are currently no watches in effect.